createdAt,value
2017-12-20T00:00:04.500Z,102277.48
2017-12-20T00:01:06.977Z,102277.92
2017-12-20T00:02:09.665Z,102276.05
2017-12-20T00:03:12.210Z,102277.48
2017-12-20T00:04:14.692Z,102277.74
2017-12-20T00:05:18.360Z,102272.40
2017-12-20T00:06:20.986Z,102277.39
2017-12-20T00:07:23.483Z,102278.59
2017-12-20T00:08:25.989Z,102270.05
2017-12-20T00:09:28.481Z,102273.46
2017-12-20T00:10:30.944Z,102273.23
2017-12-20T00:11:33.429Z,102275.61
2017-12-20T00:12:35.911Z,102271.38
2017-12-20T00:13:38.418Z,102275.66
2017-12-20T00:14:40.907Z,102270.91
2017-12-20T00:15:43.384Z,102274.25
2017-12-20T00:16:45.867Z,102268.52
2017-12-20T00:17:48.353Z,102268.00
2017-12-20T00:18:50.851Z,102262.50
2017-12-20T00:19:53.314Z,102265.85
2017-12-20T00:20:55.779Z,102267.36
2017-12-20T00:21:58.243Z,102265.65
2017-12-20T00:23:00.783Z,102261.09
2017-12-20T00:24:03.315Z,102265.12
2017-12-20T00:25:05.784Z,102258.45
2017-12-20T00:26:08.276Z,102258.07
2017-12-20T00:27:10.766Z,102252.93
2017-12-20T00:28:13.478Z,102255.78
2017-12-20T00:29:15.973Z,102249.47
2017-12-20T00:30:18.457Z,102243.85
2017-12-20T00:31:20.917Z,102241.84
2017-12-20T00:32:23.396Z,102244.82
2017-12-20T00:33:25.892Z,102242.00
2017-12-20T00:34:28.378Z,102239.77
2017-12-20T00:35:30.854Z,102233.58
2017-12-20T00:36:33.328Z,102235.73
2017-12-20T00:37:35.793Z,102236.06
2017-12-20T00:38:38.254Z,102229.23
2017-12-20T00:39:40.747Z,102231.55
2017-12-20T00:40:43.221Z,102233.78
2017-12-20T00:41:45.697Z,102236.08
2017-12-20T00:42:48.162Z,102232.09
2017-12-20T00:43:50.635Z,102235.43
2017-12-20T00:44:53.123Z,102236.31
2017-12-20T00:45:55.608Z,102236.75
2017-12-20T00:46:58.086Z,102236.61
2017-12-20T00:48:00.561Z,102237.28
2017-12-20T00:49:03.026Z,102229.27
2017-12-20T00:50:05.515Z,102235.92
2017-12-20T00:51:07.978Z,102230.73
2017-12-20T00:52:10.455Z,102235.40
2017-12-20T00:53:12.929Z,102234.91
2017-12-20T00:54:15.390Z,102232.52
2017-12-20T00:55:17.879Z,102236.07
2017-12-20T00:56:20.387Z,102231.26
2017-12-20T00:57:22.869Z,102232.47
2017-12-20T00:58:25.335Z,102234.47
2017-12-20T00:59:27.790Z,102232.14
2017-12-20T01:00:30.275Z,102230.05
2017-12-20T01:01:32.755Z,102235.19
2017-12-20T01:02:35.218Z,102237.58
2017-12-20T01:03:37.697Z,102237.92
2017-12-20T01:04:40.172Z,102238.78
2017-12-20T01:05:42.650Z,102243.54
2017-12-20T01:06:45.132Z,102238.40
2017-12-20T01:07:47.620Z,102244.71
2017-12-20T01:08:50.101Z,102245.16
2017-12-20T01:09:52.599Z,102249.77
2017-12-20T01:10:55.146Z,102247.00
2017-12-20T01:11:57.625Z,102253.52
2017-12-20T01:13:00.083Z,102253.91
2017-12-20T01:14:02.564Z,102255.45
2017-12-20T01:15:05.022Z,102257.64
2017-12-20T01:16:07.513Z,102267.06
2017-12-20T01:17:10.009Z,102261.19
2017-12-20T01:18:12.491Z,102262.06
2017-12-20T01:19:14.976Z,102263.63
2017-12-20T01:20:17.457Z,102259.09
2017-12-20T01:21:19.954Z,102263.47
2017-12-20T01:22:22.432Z,102264.06
2017-12-20T01:23:24.903Z,102266.77
2017-12-20T01:24:27.370Z,102266.83
2017-12-20T01:25:29.830Z,102269.25
2017-12-20T01:26:32.322Z,102260.73
2017-12-20T01:27:34.808Z,102267.02
2017-12-20T01:28:37.286Z,102265.76
2017-12-20T01:29:39.771Z,102267.35
2017-12-20T01:30:42.243Z,102272.61
2017-12-20T01:31:44.841Z,102267.12
2017-12-20T01:32:47.335Z,102268.77
2017-12-20T01:33:49.813Z,102267.94
2017-12-20T01:34:52.293Z,102265.62
2017-12-20T01:35:54.775Z,102265.02
2017-12-20T01:36:57.263Z,102260.69
2017-12-20T01:37:59.726Z,102259.69
2017-12-20T01:39:02.205Z,102259.84
2017-12-20T01:40:04.689Z,102255.91
2017-12-20T01:41:07.167Z,102255.00
2017-12-20T01:42:09.666Z,102263.63
2017-12-20T01:43:12.157Z,102259.17
2017-12-20T01:44:14.669Z,102254.42
2017-12-20T01:45:17.145Z,102268.27
2017-12-20T01:46:19.606Z,102258.08
2017-12-20T01:47:22.095Z,102261.53
2017-12-20T01:48:24.554Z,102264.94
2017-12-20T01:49:27.033Z,102262.55
2017-12-20T01:50:29.514Z,102262.05
2017-12-20T01:51:31.993Z,102257.83
2017-12-20T01:52:34.493Z,102255.37
2017-12-20T01:53:36.976Z,102254.05
2017-12-20T01:54:39.452Z,102254.19
2017-12-20T01:55:41.929Z,102252.05
2017-12-20T01:56:44.408Z,102257.29
2017-12-20T01:57:46.902Z,102256.09
2017-12-20T01:58:49.397Z,102251.38
2017-12-20T01:59:51.882Z,102251.91
2017-12-20T02:00:54.347Z,102247.49
2017-12-20T02:01:56.830Z,102248.47
2017-12-20T02:02:59.314Z,102252.11
2017-12-20T02:04:01.786Z,102246.61
2017-12-20T02:05:04.269Z,102234.85
2017-12-20T02:06:06.739Z,102239.71
2017-12-20T02:07:09.202Z,102239.33
2017-12-20T02:08:11.708Z,102239.27
2017-12-20T02:09:14.176Z,102240.00
2017-12-20T02:10:16.661Z,102238.55
2017-12-20T02:11:19.127Z,102244.62
2017-12-20T02:12:21.614Z,102240.39
2017-12-20T02:13:24.116Z,102242.30
2017-12-20T02:14:26.598Z,102244.03
2017-12-20T02:15:29.066Z,102246.17
2017-12-20T02:16:31.544Z,102248.80
2017-12-20T02:17:34.028Z,102247.05
2017-12-20T02:18:37.442Z,102248.79
2017-12-20T02:19:39.916Z,102247.05
2017-12-20T02:20:42.391Z,102247.77
2017-12-20T02:21:44.855Z,102243.54
2017-12-20T02:22:47.353Z,102242.28
2017-12-20T02:23:49.846Z,102238.50
2017-12-20T02:24:52.325Z,102236.85
2017-12-20T02:25:54.791Z,102240.88
2017-12-20T02:26:57.272Z,102233.53
2017-12-20T02:27:59.756Z,102234.33
2017-12-20T02:29:02.242Z,102232.63
2017-12-20T02:30:04.721Z,102232.87
2017-12-20T02:31:07.201Z,102225.97
2017-12-20T02:32:09.681Z,102227.27
2017-12-20T02:33:33.061Z,102221.00
2017-12-20T02:34:35.530Z,102220.72
2017-12-20T02:35:38.013Z,102219.25
2017-12-20T02:36:40.493Z,102219.21
2017-12-20T02:37:42.969Z,102217.01
2017-12-20T02:38:45.442Z,102217.30
2017-12-20T02:39:47.929Z,102217.28
2017-12-20T02:40:50.399Z,102218.82
2017-12-20T02:41:52.884Z,102218.14
2017-12-20T02:42:55.361Z,102218.13
2017-12-20T02:43:57.827Z,102218.93
2017-12-20T02:45:00.295Z,102218.35
2017-12-20T02:46:02.763Z,102223.33
2017-12-20T02:47:05.287Z,102223.27
2017-12-20T02:48:07.751Z,102222.28
2017-12-20T02:49:10.224Z,102222.47
2017-12-20T02:50:12.686Z,102220.89
2017-12-20T02:51:15.160Z,102223.67
2017-12-20T02:52:17.627Z,102224.98
2017-12-20T02:53:20.117Z,102220.80
2017-12-20T02:54:22.586Z,102224.89
2017-12-20T02:55:25.051Z,102216.93
2017-12-20T02:56:27.537Z,102215.92
2017-12-20T02:57:30.002Z,102217.45
2017-12-20T02:58:32.489Z,102208.31
2017-12-20T02:59:34.972Z,102210.31
2017-12-20T03:00:37.444Z,102211.19
2017-12-20T03:01:39.906Z,102214.49
2017-12-20T03:02:42.405Z,102218.45
2017-12-20T03:03:44.873Z,102216.64
2017-12-20T03:04:47.379Z,102219.02
2017-12-20T03:05:49.861Z,102221.28
2017-12-20T03:06:52.357Z,102220.13
2017-12-20T03:07:54.836Z,102224.48
2017-12-20T03:08:57.298Z,102223.67
2017-12-20T03:09:59.781Z,102225.17
2017-12-20T03:11:02.247Z,102219.56
2017-12-20T03:12:04.706Z,102219.53
2017-12-20T03:13:07.175Z,102214.54
2017-12-20T03:14:09.661Z,102218.66
2017-12-20T03:15:12.139Z,102210.05
2017-12-20T03:16:14.598Z,102208.76
2017-12-20T03:17:17.066Z,102210.15
2017-12-20T03:18:19.549Z,102203.90
2017-12-20T03:19:22.015Z,102200.13
2017-12-20T03:20:24.492Z,102203.28
2017-12-20T03:21:26.963Z,102197.53
2017-12-20T03:22:29.422Z,102197.94
2017-12-20T03:23:31.901Z,102199.56
2017-12-20T03:24:34.365Z,102198.88
2017-12-20T03:25:36.830Z,102202.91
2017-12-20T03:26:39.309Z,102196.59
2017-12-20T03:27:41.793Z,102194.72
2017-12-20T03:28:44.254Z,102186.28
2017-12-20T03:29:46.736Z,102190.91
2017-12-20T03:30:49.229Z,102187.09
2017-12-20T03:31:51.694Z,102190.22
2017-12-20T03:32:54.188Z,102191.34
2017-12-20T03:33:56.665Z,102186.14
2017-12-20T03:34:59.127Z,102187.48
2017-12-20T03:36:01.588Z,102183.81
2017-12-20T03:37:04.060Z,102186.62
2017-12-20T03:38:06.523Z,102185.51
2017-12-20T03:39:09.004Z,102187.82
2017-12-20T03:40:11.506Z,102183.84
2017-12-20T03:41:13.989Z,102188.97
2017-12-20T03:42:16.468Z,102191.11
2017-12-20T03:43:18.930Z,102184.89
2017-12-20T03:44:21.387Z,102181.85
2017-12-20T03:45:23.856Z,102176.23
2017-12-20T03:46:26.315Z,102182.20
2017-12-20T03:47:28.789Z,102182.13
2017-12-20T03:48:31.251Z,102181.20
2017-12-20T03:49:33.710Z,102181.99
2017-12-20T03:50:36.179Z,102186.73
2017-12-20T03:51:38.660Z,102184.62
2017-12-20T03:52:41.122Z,102186.56
2017-12-20T03:53:43.587Z,102191.39
2017-12-20T03:54:46.084Z,102190.84
2017-12-20T03:55:48.546Z,102184.78
2017-12-20T03:56:51.024Z,102189.09
2017-12-20T03:57:53.761Z,102188.14
2017-12-20T03:58:56.227Z,102191.93
2017-12-20T03:59:58.697Z,102199.13
2017-12-20T04:01:01.169Z,102204.59
2017-12-20T04:02:03.649Z,102200.25
2017-12-20T04:03:06.124Z,102210.16
2017-12-20T04:04:08.583Z,102206.97
2017-12-20T04:05:11.060Z,102211.73
2017-12-20T04:06:13.546Z,102210.68
2017-12-20T04:07:16.025Z,102217.45
2017-12-20T04:08:18.486Z,102214.98
2017-12-20T04:09:20.964Z,102213.13
2017-12-20T04:10:23.444Z,102210.23
2017-12-20T04:11:25.925Z,102206.72
2017-12-20T04:12:28.401Z,102208.77
2017-12-20T04:13:30.891Z,102205.33
2017-12-20T04:14:33.392Z,102208.53
2017-12-20T04:15:35.872Z,102209.20
2017-12-20T04:16:38.352Z,102212.16
2017-12-20T04:17:40.838Z,102215.22
2017-12-20T04:18:43.316Z,102216.91
2017-12-20T04:19:45.817Z,102218.88
2017-12-20T04:20:48.333Z,102214.92
2017-12-20T04:21:50.807Z,102215.66
2017-12-20T04:22:53.290Z,102211.33
2017-12-20T04:23:55.769Z,102213.48
2017-12-20T04:24:58.248Z,102218.52
2017-12-20T04:26:00.731Z,102219.16
2017-12-20T04:27:03.198Z,102214.19
2017-12-20T04:28:05.693Z,102216.48
2017-12-20T04:29:08.159Z,102219.61
2017-12-20T04:30:10.636Z,102222.31
2017-12-20T04:31:13.113Z,102224.25
2017-12-20T04:32:15.587Z,102221.69
2017-12-20T04:33:18.067Z,102223.03
2017-12-20T04:34:20.531Z,102221.16
2017-12-20T04:35:23.013Z,102219.78
2017-12-20T04:36:25.478Z,102215.86
2017-12-20T04:37:27.952Z,102214.78
2017-12-20T04:38:30.418Z,102214.11
2017-12-20T04:39:32.904Z,102214.27
2017-12-20T04:40:35.366Z,102216.28
2017-12-20T04:41:37.841Z,102214.31
2017-12-20T04:42:40.303Z,102213.09
2017-12-20T04:43:42.785Z,102211.95
2017-12-20T04:44:45.254Z,102213.95
2017-12-20T04:45:47.796Z,102216.83
2017-12-20T04:46:50.280Z,102207.52
2017-12-20T04:47:52.766Z,102209.80
2017-12-20T04:48:55.249Z,102209.06
2017-12-20T04:49:57.728Z,102207.08
2017-12-20T04:51:00.190Z,102208.81
2017-12-20T04:52:02.668Z,102198.92
2017-12-20T04:53:05.183Z,102201.08
2017-12-20T04:54:07.650Z,102205.02
2017-12-20T04:55:10.109Z,102202.13
2017-12-20T04:56:12.598Z,102206.49
2017-12-20T04:57:15.067Z,102203.86
2017-12-20T04:58:17.548Z,102206.79
2017-12-20T04:59:20.015Z,102203.86
2017-12-20T05:00:22.484Z,102209.84
2017-12-20T05:01:24.954Z,102202.81
2017-12-20T05:02:27.437Z,102202.48
2017-12-20T05:03:29.920Z,102203.38
2017-12-20T05:04:32.390Z,102201.97
2017-12-20T05:05:34.854Z,102212.23
2017-12-20T05:06:37.333Z,102212.64
2017-12-20T05:07:39.834Z,102207.56
2017-12-20T05:08:42.312Z,102211.86
2017-12-20T05:09:44.778Z,102211.34
2017-12-20T05:10:47.243Z,102213.39
2017-12-20T05:11:49.721Z,102211.11
2017-12-20T05:12:52.206Z,102214.53
2017-12-20T05:13:54.667Z,102212.27
2017-12-20T05:14:57.130Z,102213.42
2017-12-20T05:15:59.591Z,102210.44
2017-12-20T05:17:02.069Z,102215.66
2017-12-20T05:18:04.539Z,102218.73
2017-12-20T05:19:07.057Z,102218.45
2017-12-20T05:20:09.522Z,102220.82
2017-12-20T05:21:11.996Z,102211.80
2017-12-20T05:22:14.485Z,102209.73
2017-12-20T05:23:16.942Z,102212.28
2017-12-20T05:24:19.421Z,102213.04
2017-12-20T05:25:21.886Z,102217.91
2017-12-20T05:26:24.387Z,102217.73
2017-12-20T05:27:26.850Z,102214.67
2017-12-20T05:28:29.333Z,102218.89
2017-12-20T05:29:31.813Z,102218.71
2017-12-20T05:30:34.296Z,102225.25
2017-12-20T05:31:36.762Z,102219.02
2017-12-20T05:32:39.233Z,102223.14
2017-12-20T05:33:41.703Z,102228.41
2017-12-20T05:34:44.185Z,102221.92
2017-12-20T05:35:46.677Z,102216.63
2017-12-20T05:36:49.142Z,102221.94
2017-12-20T05:37:51.606Z,102222.82
2017-12-20T05:38:54.078Z,102225.11
2017-12-20T05:39:56.560Z,102219.90
2017-12-20T05:40:59.028Z,102215.52
2017-12-20T05:42:01.509Z,102210.17
2017-12-20T05:43:04.015Z,102214.64
2017-12-20T05:44:06.511Z,102218.59
2017-12-20T05:45:08.981Z,102211.23
2017-12-20T05:46:11.473Z,102205.30
2017-12-20T05:47:13.957Z,102206.63
2017-12-20T05:48:16.423Z,102204.34
2017-12-20T05:49:18.887Z,102208.97
2017-12-20T05:50:21.346Z,102207.20
2017-12-20T05:51:23.832Z,102211.58
2017-12-20T05:52:26.314Z,102211.05
2017-12-20T05:53:28.800Z,102211.30
2017-12-20T05:54:31.323Z,102199.48
2017-12-20T05:55:33.795Z,102205.02
2017-12-20T05:56:36.282Z,102204.48
2017-12-20T05:57:38.792Z,102202.07
2017-12-20T05:58:41.258Z,102211.14
2017-12-20T05:59:43.804Z,102214.39
2017-12-20T06:00:46.274Z,102213.17
2017-12-20T06:01:48.742Z,102215.36
2017-12-20T06:02:51.261Z,102216.73
2017-12-20T06:03:53.741Z,102224.06
2017-12-20T06:04:56.256Z,102221.45
2017-12-20T06:05:58.740Z,102222.59
2017-12-20T06:07:01.226Z,102223.22
2017-12-20T06:08:03.739Z,102221.43
2017-12-20T06:09:06.230Z,102225.20
2017-12-20T06:10:08.742Z,102225.34
2017-12-20T06:11:11.229Z,102228.83
2017-12-20T06:12:13.690Z,102229.89
2017-12-20T06:13:16.176Z,102228.98
2017-12-20T06:14:18.664Z,102228.48
2017-12-20T06:15:21.168Z,102227.21
2017-12-20T06:16:23.654Z,102225.91
2017-12-20T06:17:26.149Z,102224.72
2017-12-20T06:18:28.681Z,102226.52
2017-12-20T06:19:31.195Z,102221.06
2017-12-20T06:20:33.690Z,102222.95
2017-12-20T06:21:36.161Z,102220.03
2017-12-20T06:22:38.662Z,102215.95
2017-12-20T06:23:41.240Z,102213.97
2017-12-20T06:24:43.724Z,102210.22
2017-12-20T06:25:46.202Z,102210.75
2017-12-20T06:26:48.681Z,102210.16
2017-12-20T06:27:51.168Z,102212.69
2017-12-20T06:28:53.687Z,102213.14
2017-12-20T06:29:56.179Z,102210.47
2017-12-20T06:30:58.665Z,102205.48
2017-12-20T06:32:01.149Z,102208.39
2017-12-20T06:33:03.610Z,102206.29
2017-12-20T06:34:06.088Z,102211.34
2017-12-20T06:35:08.579Z,102213.27
2017-12-20T06:36:11.069Z,102213.52
2017-12-20T06:37:13.560Z,102211.38
2017-12-20T06:38:16.019Z,102211.78
2017-12-20T06:39:18.520Z,102215.70
2017-12-20T06:40:21.039Z,102216.64
2017-12-20T06:41:23.506Z,102218.72
2017-12-20T06:42:25.994Z,102217.36
2017-12-20T06:43:28.489Z,102214.69
2017-12-20T06:44:30.988Z,102216.67
2017-12-20T06:45:33.477Z,102220.42
2017-12-20T06:46:35.950Z,102221.41
2017-12-20T06:47:38.414Z,102218.40
2017-12-20T06:48:40.882Z,102219.86
2017-12-20T06:49:43.342Z,102222.51
2017-12-20T06:50:45.926Z,102200.36
2017-12-20T06:51:48.434Z,102214.94
2017-12-20T06:52:50.899Z,102217.38
2017-12-20T06:53:53.358Z,102217.31
2017-12-20T06:54:55.847Z,102208.83
2017-12-20T06:55:58.324Z,102221.98
2017-12-20T06:57:00.790Z,102213.70
2017-12-20T06:58:03.256Z,102212.53
2017-12-20T06:59:05.740Z,102214.15
2017-12-20T07:00:08.237Z,102211.64
2017-12-20T07:01:10.770Z,102216.94
2017-12-20T07:02:13.268Z,102218.86
2017-12-20T07:03:15.774Z,102221.82
2017-12-20T07:04:18.306Z,102221.28
2017-12-20T07:05:20.750Z,102226.36
2017-12-20T07:06:23.211Z,102229.43
2017-12-20T07:07:25.718Z,102228.59
2017-12-20T07:08:28.179Z,102227.63
2017-12-20T07:09:30.647Z,102230.81
2017-12-20T07:10:33.165Z,102228.42
2017-12-20T07:11:35.647Z,102229.00
2017-12-20T07:12:38.114Z,102227.84
2017-12-20T07:13:40.589Z,102228.45
2017-12-20T07:14:43.073Z,102234.23
2017-12-20T07:15:45.576Z,102235.08
2017-12-20T07:16:48.058Z,102231.83
2017-12-20T07:17:50.539Z,102232.38
2017-12-20T07:18:53.050Z,102233.98
2017-12-20T07:19:55.546Z,102235.09
2017-12-20T07:20:58.032Z,102237.30
2017-12-20T07:22:00.533Z,102240.69
2017-12-20T07:23:03.037Z,102242.89
2017-12-20T07:24:05.516Z,102239.11
2017-12-20T07:25:07.981Z,102245.16
2017-12-20T07:26:10.460Z,102247.43
2017-12-20T07:27:12.925Z,102248.84
2017-12-20T07:28:15.392Z,102242.68
2017-12-20T07:29:17.855Z,102240.45
2017-12-20T07:30:20.395Z,102244.38
2017-12-20T07:31:22.879Z,102239.23
2017-12-20T07:32:25.357Z,102243.32
2017-12-20T07:33:27.834Z,102240.52
2017-12-20T07:34:30.310Z,102236.16
2017-12-20T07:35:32.797Z,102243.64
2017-12-20T07:36:35.295Z,102241.81
2017-12-20T07:37:37.780Z,102240.86
2017-12-20T07:38:40.366Z,102234.52
2017-12-20T07:39:42.908Z,102241.41
2017-12-20T07:40:45.363Z,102249.21
2017-12-20T07:41:47.860Z,102251.45
2017-12-20T07:42:50.339Z,102250.77
2017-12-20T07:43:52.889Z,102247.67
2017-12-20T07:44:55.346Z,102246.77
2017-12-20T07:45:57.824Z,102247.50
2017-12-20T07:47:00.312Z,102249.84
2017-12-20T07:48:02.799Z,102246.72
2017-12-20T07:49:05.263Z,102250.29
2017-12-20T07:50:07.737Z,102249.45
2017-12-20T07:51:10.217Z,102246.69
2017-12-20T07:52:12.704Z,102245.55
2017-12-20T07:53:15.188Z,102248.09
2017-12-20T07:54:17.662Z,102248.84
2017-12-20T07:55:20.148Z,102244.87
2017-12-20T07:56:22.618Z,102248.50
2017-12-20T07:57:25.094Z,102250.95
2017-12-20T07:58:27.580Z,102244.91
2017-12-20T07:59:30.047Z,102248.16
2017-12-20T08:00:32.579Z,102245.77
2017-12-20T08:01:35.042Z,102243.59
2017-12-20T08:02:37.538Z,102242.34
2017-12-20T08:03:40.067Z,102253.70
2017-12-20T08:04:42.540Z,102247.66
2017-12-20T08:05:45.015Z,102243.20
2017-12-20T08:06:47.497Z,102246.55
2017-12-20T08:07:49.979Z,102244.80
2017-12-20T08:08:52.553Z,102251.80
2017-12-20T08:09:55.033Z,102246.76
2017-12-20T08:10:57.502Z,102248.22
2017-12-20T08:11:59.970Z,102253.31
2017-12-20T08:13:02.430Z,102251.17
2017-12-20T08:14:04.912Z,102240.81
2017-12-20T08:15:07.401Z,102249.51
2017-12-20T08:16:09.867Z,102253.50
2017-12-20T08:17:12.404Z,102257.53
2017-12-20T08:18:14.876Z,102250.63
2017-12-20T08:19:17.366Z,102258.55
2017-12-20T08:20:19.844Z,102256.11
2017-12-20T08:21:22.313Z,102259.78
2017-12-20T08:22:24.828Z,102265.32
2017-12-20T08:23:27.309Z,102268.04
2017-12-20T08:24:29.782Z,102268.64
2017-12-20T08:25:32.267Z,102267.37
2017-12-20T08:26:34.749Z,102266.79
2017-12-20T08:27:37.236Z,102269.47
2017-12-20T08:28:39.748Z,102267.59
2017-12-20T08:29:42.226Z,102267.91
2017-12-20T08:30:44.695Z,102270.19
2017-12-20T08:31:47.165Z,102277.42
2017-12-20T08:32:49.644Z,102277.03
2017-12-20T08:33:52.153Z,102280.29
2017-12-20T08:34:54.620Z,102284.10
2017-12-20T08:35:57.105Z,102280.94
2017-12-20T08:36:59.579Z,102284.50
2017-12-20T08:38:02.082Z,102275.17
2017-12-20T08:39:04.592Z,102278.90
2017-12-20T08:40:07.074Z,102277.77
2017-12-20T08:41:09.547Z,102281.87
2017-12-20T08:42:12.010Z,102284.84
2017-12-20T08:43:14.482Z,102283.77
2017-12-20T08:44:16.987Z,102284.84
2017-12-20T08:45:19.478Z,102284.28
2017-12-20T08:46:21.960Z,102282.59
2017-12-20T08:47:24.419Z,102282.20
2017-12-20T08:48:26.887Z,102286.73
2017-12-20T08:49:29.415Z,102289.56
2017-12-20T08:50:31.987Z,102289.98
2017-12-20T08:51:34.462Z,102293.68
2017-12-20T08:52:36.932Z,102288.00
2017-12-20T08:53:39.440Z,102294.38
2017-12-20T08:54:41.926Z,102297.19
2017-12-20T08:55:44.488Z,102298.44
2017-12-20T08:56:47.081Z,102301.13
2017-12-20T08:57:49.547Z,102296.72
2017-12-20T08:58:52.166Z,102300.59
2017-12-20T08:59:54.743Z,102305.89
2017-12-20T09:00:57.206Z,102301.84
2017-12-20T09:01:59.666Z,102308.03
2017-12-20T09:03:02.199Z,102303.73
2017-12-20T09:04:04.744Z,102306.41
2017-12-20T09:05:07.319Z,102305.06
2017-12-20T09:06:09.782Z,102309.53
2017-12-20T09:07:12.247Z,102311.25
2017-12-20T09:08:14.804Z,102305.19
2017-12-20T09:09:17.353Z,102314.22
2017-12-20T09:10:19.895Z,102309.77
2017-12-20T09:11:22.378Z,102313.20
2017-12-20T09:12:24.901Z,102315.17
2017-12-20T09:13:27.512Z,102314.84
2017-12-20T09:14:29.973Z,102314.70
2017-12-20T09:15:32.484Z,102319.62
2017-12-20T09:16:34.960Z,102315.30
2017-12-20T09:17:37.428Z,102323.34
2017-12-20T09:18:40.016Z,102322.13
2017-12-20T09:19:42.551Z,102324.58
2017-12-20T09:20:45.029Z,102329.19
2017-12-20T09:21:47.588Z,102329.02
2017-12-20T09:22:50.059Z,102319.89
2017-12-20T09:23:52.518Z,102330.56
2017-12-20T09:24:55.014Z,102330.55
2017-12-20T09:25:57.474Z,102333.98
2017-12-20T09:26:59.970Z,102330.30
2017-12-20T09:28:02.443Z,102338.52
2017-12-20T09:29:04.921Z,102337.73
2017-12-20T09:30:07.415Z,102335.81
2017-12-20T09:31:09.891Z,102333.27
2017-12-20T09:32:12.382Z,102340.16
2017-12-20T09:33:14.868Z,102338.45
2017-12-20T09:34:17.345Z,102338.95
2017-12-20T09:35:19.818Z,102344.78
2017-12-20T09:36:22.295Z,102342.80
2017-12-20T09:37:24.758Z,102336.59
2017-12-20T09:38:27.222Z,102336.50
2017-12-20T09:39:29.693Z,102342.92
2017-12-20T09:40:32.252Z,102339.24
2017-12-20T09:41:34.725Z,102342.52
2017-12-20T09:42:37.207Z,102342.97
2017-12-20T09:43:39.681Z,102346.17
2017-12-20T09:44:42.169Z,102348.35
2017-12-20T09:45:44.644Z,102347.28
2017-12-20T09:46:47.136Z,102349.02
2017-12-20T09:47:49.620Z,102344.93
2017-12-20T09:48:52.128Z,102349.86
2017-12-20T09:49:54.596Z,102350.36
2017-12-20T09:50:57.149Z,102351.66
2017-12-20T09:51:59.591Z,102353.89
2017-12-20T09:53:02.062Z,102356.86
2017-12-20T09:54:04.543Z,102359.45
2017-12-20T09:55:07.028Z,102359.20
2017-12-20T09:56:09.495Z,102356.75
2017-12-20T09:57:11.997Z,102358.96
2017-12-20T09:58:14.459Z,102361.56
2017-12-20T09:59:16.940Z,102363.03
2017-12-20T10:00:19.403Z,102369.67
2017-12-20T10:01:21.880Z,102365.07
2017-12-20T10:02:24.425Z,102364.30
2017-12-20T10:03:26.973Z,102357.49
2017-12-20T10:04:29.460Z,102361.67
2017-12-20T10:05:32.012Z,102351.95
2017-12-20T10:06:34.490Z,102359.55
2017-12-20T10:07:36.994Z,102358.44
2017-12-20T10:08:39.548Z,102353.89
2017-12-20T10:09:42.013Z,102357.03
2017-12-20T10:10:44.613Z,102355.95
2017-12-20T10:11:47.290Z,102356.39
2017-12-20T10:12:49.786Z,102354.14
2017-12-20T10:13:52.270Z,102357.89
2017-12-20T10:14:54.746Z,102353.28
2017-12-20T10:15:57.237Z,102358.41
2017-12-20T10:16:59.707Z,102361.80
2017-12-20T10:18:02.199Z,102357.84
2017-12-20T10:19:04.659Z,102357.84
2017-12-20T10:20:07.147Z,102355.84
2017-12-20T10:21:09.625Z,102354.34
2017-12-20T10:22:12.095Z,102349.43
2017-12-20T10:23:14.596Z,102339.89
2017-12-20T10:24:17.068Z,102345.52
2017-12-20T10:25:19.549Z,102338.98
2017-12-20T10:26:22.070Z,102336.05
2017-12-20T10:27:24.530Z,102336.62
2017-12-20T10:28:27.036Z,102327.27
2017-12-20T10:29:29.516Z,102325.80
2017-12-20T10:30:32.000Z,102321.02
2017-12-20T10:31:34.478Z,102311.13
2017-12-20T10:32:36.938Z,102316.69
2017-12-20T10:33:39.440Z,102309.86
2017-12-20T10:34:41.955Z,102316.66
2017-12-20T10:35:44.432Z,102323.22
2017-12-20T10:36:46.912Z,102322.11
2017-12-20T10:37:49.370Z,102323.03
2017-12-20T10:38:51.866Z,102326.50
2017-12-20T10:39:55.162Z,102321.73
2017-12-20T10:40:57.645Z,102321.14
2017-12-20T10:42:00.124Z,102324.36
2017-12-20T10:43:02.609Z,102321.17
2017-12-20T10:44:05.089Z,102324.50
2017-12-20T10:45:07.576Z,102324.95
2017-12-20T10:46:10.034Z,102323.61
2017-12-20T10:47:12.575Z,102328.78
2017-12-20T10:48:15.038Z,102328.97
2017-12-20T10:49:17.503Z,102327.43
2017-12-20T10:50:19.978Z,102321.81
2017-12-20T10:51:22.464Z,102324.68
2017-12-20T10:52:24.950Z,102327.52
2017-12-20T10:53:27.430Z,102324.02
2017-12-20T10:54:29.896Z,102317.55
2017-12-20T10:55:32.375Z,102325.13
2017-12-20T10:56:34.834Z,102330.20
2017-12-20T10:57:37.298Z,102331.61
2017-12-20T10:58:39.770Z,102328.28
2017-12-20T10:59:42.249Z,102328.70
2017-12-20T11:00:44.729Z,102329.63
2017-12-20T11:01:47.195Z,102328.48
2017-12-20T11:02:49.748Z,102330.97
2017-12-20T11:03:52.206Z,102329.80
2017-12-20T11:04:54.669Z,102329.73
2017-12-20T11:05:57.156Z,102326.95
2017-12-20T11:06:59.632Z,102329.19
2017-12-20T11:08:02.134Z,102331.76
2017-12-20T11:09:04.621Z,102331.67
2017-12-20T11:10:07.083Z,102329.82
2017-12-20T11:11:09.547Z,102331.99
2017-12-20T11:12:12.056Z,102334.20
2017-12-20T11:13:14.535Z,102331.45
2017-12-20T11:14:16.994Z,102335.45
2017-12-20T11:15:19.454Z,102334.64
2017-12-20T11:16:21.918Z,102331.37
2017-12-20T11:17:24.378Z,102327.67
2017-12-20T11:18:26.848Z,102329.91
2017-12-20T11:19:29.319Z,102328.02
2017-12-20T11:20:31.785Z,102326.30
2017-12-20T11:21:34.290Z,102331.33
2017-12-20T11:22:36.759Z,102330.86
2017-12-20T11:23:39.236Z,102324.20
2017-12-20T11:24:41.705Z,102324.97
2017-12-20T11:25:44.225Z,102324.38
2017-12-20T11:26:46.697Z,102330.02
2017-12-20T11:27:49.155Z,102327.73
2017-12-20T11:28:51.632Z,102328.28
2017-12-20T11:29:54.113Z,102324.81
2017-12-20T11:30:56.598Z,102323.96
2017-12-20T11:31:59.077Z,102325.11
2017-12-20T11:33:01.568Z,102326.74
2017-12-20T11:34:04.088Z,102318.08
2017-12-20T11:35:06.555Z,102328.28
2017-12-20T11:36:09.043Z,102326.39
2017-12-20T11:37:11.528Z,102323.03
2017-12-20T11:38:14.012Z,102324.84
2017-12-20T11:39:16.469Z,102325.67
2017-12-20T11:40:18.930Z,102332.85
2017-12-20T11:41:21.441Z,102326.83
2017-12-20T11:42:23.911Z,102326.78
2017-12-20T11:43:26.378Z,102330.26
2017-12-20T11:44:28.859Z,102325.19
2017-12-20T11:45:31.330Z,102328.08
2017-12-20T11:46:33.815Z,102327.00
2017-12-20T11:47:36.279Z,102334.34
2017-12-20T11:48:38.762Z,102331.58
2017-12-20T11:49:41.241Z,102324.30
2017-12-20T11:50:43.723Z,102327.32
2017-12-20T11:51:46.268Z,102326.99
2017-12-20T11:52:48.725Z,102331.89